LGTS - Thessaloniki/Mik, Greece
Distance from station: 15km
: 16/06/2024 04:20
Clear
Clear

: 11 km/h
: 20°C
: 15°C
: 73%
: 1011 hPa
: Clear
Visibility: greater than 10 km
2024/06/16 01:20 LGTS 160120Z 10006KT CAVOK 20/15 Q1011 NOSIG
LGKZ - Kozani (civ/Army, Greece
Distance from station: 113km
: 16/06/2024 04:20


: 7 km/h
: 17°C
: 10°C
: 64%
: 1013 hPa
2024/06/16 01:20 LGKZ 160120Z AUTO 36004KT //// // ////// 17/10 Q1013 RE//
 
LGKV - Kavala/Chrisoupo, Greece
Distance from station: 132km
: 15/06/2024 23:50
NOT Current
Few Clouds
Few Clouds
   calm
:
: 20°C
: 17°C
: 83%
: 1011 hPa
Clouds: Few Clouds
Visibility: 10 km
Cloud details: Few Clouds 610 m
2024/06/15 20:50 LGKV 152050Z 00000KT 9999 FEW020 20/17 Q1011
LGBL - Nea Anchialos, Greece
Distance from station: 156km
: 16/06/2024 03:50
Clear
Clear
   calm
:
: 19°C
: 15°C
: 78%
: 1010 hPa
: Clear
Visibility: greater than 10 km
2024/06/16 00:50 LGBL 160050Z 00000KT CAVOK 19/15 Q1010
 
LGSK - Skiathos Island, Greece
Distance from station: 161km
: 15/06/2024 21:20
NOT Current
Clear
Clear
   varies
: varies 6 km/h
: 25°C
: 15°C
: 54%
: 1010 hPa
: Clear
Visibility: greater than 10 km
2024/06/15 18:20 LGSK 151820Z VRB03KT CAVOK 25/15 Q1010
LWSK - Skopje/Petrovac, Macedonia
Distance from station: 195km
: 16/06/2024 04:20
Clear
Clear

: 6 km/h
: 17°C
: 13°C
: 77%
: 1012 hPa
: Clear
Visibility: greater than 10 km
2024/06/16 01:20 LWSK 160120Z 11003KT 040V140 CAVOK 17/13 Q1012 NOSIG
 
LGLM - Limnos Island Ar, Greece
Distance from station: 196km
: 16/06/2024 03:50
Clear
Clear

: 4 km/h
: 19°C
: 17°C
: 88%
: 1010 hPa
: Clear
Visibility: greater than 10 km
2024/06/16 00:50 LGLM 160050Z 34002KT CAVOK 19/17 Q1010
LWOH - Ohrid, Macedonia
Distance from station: 202km
: 15/06/2024 21:50
NOT Current
Clear
Clear

: 15 km/h
: 21°C
: 16°C
: 73%
: 1014 hPa
: Clear
Visibility: greater than 10 km
2024/06/15 18:50 LWOH 151850Z 12008KT 090V160 CAVOK 21/16 Q1014
 
LGSY - Skiros, Greece
Distance from station: 217km
: 15/06/2024 20:50
NOT Current
Clear
Clear

: 7 km/h
: 24°C
: 13°C
: 50%
: 1009 hPa
: Clear
Visibility: greater than 10 km
2024/06/15 17:50 LGSY 151750Z 09004KT CAVOK 24/13 Q1009 BLU
LGIO - Ioannina, Greece
Distance from station: 218km
: 16/06/2024 04:20

   varies
: varies 4 km/h
: 15°C
: 11°C
: 77%
: 1014 hPa
2024/06/16 01:20 LGIO 160120Z AUTO VRB02KT //// // ////// 15/11 Q1014 RE//
 
LBPD - Plovdiv, Bulgaria
Distance from station: 222km
: 16/06/2024 04:30
Clear
Clear

: 9 km/h
: 15°C
: 9°C
: 68%
: 1012 hPa
Clouds: Clear
Visibility: 10 km
2024/06/16 01:30 LBPD 160130Z AUTO 27005KT 9999 NCD 15/09 Q1012
LBSF - Sofia (observato, Bulgaria
Distance from station: 229km
: 16/06/2024 04:30
Clear
Clear

: 6 km/h
: 12°C
: 10°C
: 88%
: 1013 hPa
Clouds: Clear
Visibility: 10 km
2024/06/16 01:30 LBSF 160130Z AUTO 32003KT 290V350 9999 NCD 12/10 Q1013 NOSIG
 
LGAL - Alexandroupolis, Greece
Distance from station: 242km
: 16/06/2024 03:50
Clear
Clear
   calm
:
: 19°C
: 16°C
: 83%
: 1010 hPa
: Clear
Visibility: greater than 10 km
2024/06/16 00:50 LGAL 160050Z 00000KT CAVOK 19/16 Q1010
LGPZ - Preveza/Aktion, Greece
Distance from station: 274km
: 16/06/2024 03:50
Clear
Clear

: 9 km/h
: 20°C
: 19°C
: 94%
: 1012 hPa
: Clear
Visibility: greater than 10 km
2024/06/16 00:50 LGPZ 160050Z 27005KT CAVOK 20/19 Q1012
 
BKPR - Prishtina, Yugoslavia
Distance from station: 280km
: 16/06/2024 04:30
Clear
Clear

: 6 km/h
: 15°C
: 12°C
: 82%
: 1014 hPa
: Clear
Visibility: greater than 10 km
2024/06/16 01:30 BKPR 160130Z 33003KT CAVOK 15/12 Q1014 NOSIG
LGEL - Elefsis (hel-Afb, Greece
Distance from station: 284km
: 16/06/2024 04:20

   varies
: varies 4 km/h
: 22°C
: 14°C
: 61%
: 1010 hPa
2024/06/16 01:20 LGEL 160120Z AUTO VRB02KT //// // ////// 22/14 Q1010 RE//
 
LATI - Tirana, Albania
Distance from station: 291km
: 16/06/2024 04:50
Clear
Clear
   varies
: varies 6 km/h
: 17°C
: 17°C
: 100%
: 1012 hPa
: Clear
Visibility: greater than 10 km
2024/06/16 01:50 LATI 160150Z VRB03KT CAVOK 17/17 Q1012 NOSIG
LGKR - Ioannis Kapodist, Greece
Distance from station: 292km
: 16/06/2024 04:20
Clear
Clear
   calm
:
: 20°C
: 19°C
: 94%
: 1011 hPa
: Clear
Visibility: greater than 10 km
2024/06/16 01:20 LGKR 160120Z 00000KT CAVOK 20/19 Q1011 NOSIG